createdAt,value
2023-03-12T00:02:26.389Z,15.20
2023-03-12T00:05:44.622Z,17.33
2023-03-12T00:09:04.767Z,16.88
2023-03-12T00:12:21.122Z,15.58
2023-03-12T00:15:37.675Z,15.83
2023-03-12T00:18:56.346Z,14.65
2023-03-12T00:22:12.904Z,14.93
2023-03-12T00:25:29.325Z,15.03
2023-03-12T00:28:46.062Z,13.48
2023-03-12T00:32:02.547Z,14.23
2023-03-12T00:35:19.275Z,13.60
2023-03-12T00:38:35.778Z,12.93
2023-03-12T00:41:51.883Z,12.75
2023-03-12T00:45:08.843Z,12.93
2023-03-12T00:48:24.838Z,12.55
2023-03-12T00:51:42.681Z,12.90
2023-03-12T00:54:59.623Z,13.38
2023-03-12T00:58:17.096Z,13.63
2023-03-12T01:01:33.592Z,13.25
2023-03-12T01:04:49.788Z,13.60
2023-03-12T01:08:05.940Z,13.40
2023-03-12T01:11:25.819Z,14.25
2023-03-12T01:17:56.009Z,14.08
2023-03-12T01:21:13.046Z,13.80
2023-03-12T01:24:29.340Z,14.15
2023-03-12T01:27:45.451Z,13.73
2023-03-12T01:31:02.049Z,13.73
2023-03-12T01:34:20.895Z,13.05
2023-03-12T01:37:38.000Z,13.50
2023-03-12T01:40:54.424Z,14.45
2023-03-12T01:44:14.990Z,14.35
2023-03-12T01:47:32.709Z,14.60
2023-03-12T01:50:52.007Z,16.03
2023-03-12T01:54:13.160Z,16.40
2023-03-12T01:57:35.125Z,15.98
2023-03-12T02:00:52.421Z,16.43
2023-03-12T02:04:10.516Z,17.23
2023-03-12T02:07:27.337Z,16.38
2023-03-12T02:10:43.646Z,17.08
2023-03-12T02:13:59.707Z,16.58
2023-03-12T02:17:16.996Z,16.15
2023-03-12T02:20:40.705Z,16.73
2023-03-12T02:24:03.572Z,16.23
2023-03-12T02:27:21.248Z,16.33
2023-03-12T02:30:43.531Z,17.10
2023-03-12T02:34:01.353Z,16.80
2023-03-12T02:37:17.388Z,17.23
2023-03-12T02:40:39.879Z,17.93
2023-03-12T02:44:02.623Z,17.23
2023-03-12T02:47:19.060Z,17.48
2023-03-12T02:50:35.356Z,16.90
2023-03-12T02:53:53.290Z,16.30
2023-03-12T02:57:09.740Z,17.73
2023-03-12T03:00:28.761Z,16.65
2023-03-12T03:03:44.860Z,17.60
2023-03-12T03:07:01.472Z,16.65
2023-03-12T03:10:19.677Z,16.23
2023-03-12T03:13:35.853Z,16.13
2023-03-12T03:16:51.930Z,16.08
2023-03-12T03:20:12.109Z,16.53
2023-03-12T03:23:28.250Z,15.40
2023-03-12T03:26:45.027Z,14.30
2023-03-12T03:30:01.629Z,13.30
2023-03-12T03:33:19.361Z,12.53
2023-03-12T03:36:35.904Z,10.83
2023-03-12T03:39:53.780Z,10.23
2023-03-12T03:43:09.976Z,9.93
2023-03-12T03:46:26.203Z,9.35
2023-03-12T03:49:44.198Z,9.23
2023-03-12T03:53:00.642Z,9.90
2023-03-12T03:56:19.646Z,9.73
2023-03-12T03:59:37.457Z,9.83
2023-03-12T04:02:54.020Z,10.55
2023-03-12T04:06:12.854Z,10.95
2023-03-12T04:09:31.282Z,10.58
2023-03-12T04:12:47.399Z,10.68
2023-03-12T04:16:03.837Z,10.93
2023-03-12T04:19:20.557Z,11.58
2023-03-12T04:22:37.069Z,11.20
2023-03-12T04:25:53.831Z,10.58
2023-03-12T04:29:11.308Z,11.05
2023-03-12T04:32:28.695Z,11.28
2023-03-12T04:35:44.956Z,10.00
2023-03-12T04:39:01.172Z,10.53
2023-03-12T04:42:19.718Z,10.25
2023-03-12T04:45:36.474Z,10.00
2023-03-12T04:48:52.808Z,11.45
2023-03-12T04:52:09.010Z,10.78
2023-03-12T04:55:25.385Z,10.68
2023-03-12T04:58:42.429Z,10.78
2023-03-12T05:01:58.770Z,10.00
2023-03-12T05:05:18.657Z,9.60
2023-03-12T05:08:34.911Z,9.75
2023-03-12T05:11:51.302Z,9.83
2023-03-12T05:15:08.441Z,10.10
2023-03-12T05:18:27.298Z,9.70
2023-03-12T05:21:45.211Z,9.83
2023-03-12T05:25:01.524Z,10.18
2023-03-12T05:28:17.755Z,10.13
2023-03-12T05:31:37.323Z,9.05
2023-03-12T05:34:54.346Z,9.58
2023-03-12T05:38:10.743Z,9.38
2023-03-12T05:41:32.942Z,8.08
2023-03-12T05:44:52.274Z,8.55
2023-03-12T05:48:09.754Z,9.10
2023-03-12T05:51:27.061Z,8.03
2023-03-12T05:54:43.437Z,8.88
2023-03-12T05:57:59.658Z,7.88
2023-03-12T06:01:22.667Z,7.55
2023-03-12T06:04:40.201Z,8.48
2023-03-12T06:07:57.934Z,7.40
2023-03-12T06:11:15.316Z,6.60
2023-03-12T06:14:31.536Z,6.95
2023-03-12T06:17:48.847Z,6.63
2023-03-12T06:21:17.141Z,7.30
2023-03-12T06:24:33.914Z,7.27
2023-03-12T06:27:51.666Z,6.83
2023-03-12T06:31:08.112Z,7.00
2023-03-12T06:34:24.397Z,6.48
2023-03-12T06:37:42.605Z,6.45
2023-03-12T06:41:07.066Z,6.60
2023-03-12T06:44:24.535Z,5.88
2023-03-12T06:47:41.477Z,5.63
2023-03-12T06:50:57.810Z,6.00
2023-03-12T06:54:14.019Z,5.70
2023-03-12T06:57:30.111Z,6.23
2023-03-12T07:00:47.231Z,5.70
2023-03-12T07:04:03.515Z,5.68
2023-03-12T07:07:22.231Z,5.93
2023-03-12T07:10:38.675Z,6.00
2023-03-12T07:13:55.549Z,5.75
2023-03-12T07:17:13.035Z,5.83
2023-03-12T07:20:29.747Z,5.45
2023-03-12T07:23:46.023Z,5.15
2023-03-12T07:27:02.906Z,4.88
2023-03-12T07:30:21.402Z,5.00
2023-03-12T07:33:38.011Z,4.63
2023-03-12T07:36:55.579Z,4.43
2023-03-12T07:40:14.437Z,4.40
2023-03-12T07:43:31.033Z,4.05
2023-03-12T07:46:47.700Z,3.60
2023-03-12T07:50:04.308Z,3.73
2023-03-12T07:53:20.902Z,3.60
2023-03-12T07:56:37.736Z,3.30
2023-03-12T07:59:54.094Z,3.78
2023-03-12T08:03:11.536Z,3.20
2023-03-12T08:06:27.839Z,3.30
2023-03-12T08:09:45.754Z,3.20
2023-03-12T08:13:01.986Z,2.88
2023-03-12T08:16:19.466Z,3.05
2023-03-12T08:19:36.733Z,3.38
2023-03-12T08:22:53.423Z,3.43
2023-03-12T08:26:09.988Z,3.30
2023-03-12T08:29:26.343Z,3.10
2023-03-12T08:32:44.617Z,2.88
2023-03-12T08:36:08.307Z,2.60
2023-03-12T08:39:24.418Z,3.10
2023-03-12T08:42:41.032Z,2.73
2023-03-12T08:46:02.766Z,2.63
2023-03-12T08:49:19.925Z,2.35
2023-03-12T08:52:36.150Z,2.38
2023-03-12T08:55:52.417Z,2.40
2023-03-12T08:59:09.285Z,2.63
2023-03-12T09:02:25.827Z,2.58
2023-03-12T09:05:42.438Z,2.70
2023-03-12T09:09:00.272Z,20.93
2023-03-12T09:12:17.468Z,3.00
2023-03-12T09:15:34.220Z,2.40
2023-03-12T09:18:50.743Z,2.20
2023-03-12T09:22:06.939Z,2.35
2023-03-12T09:25:24.215Z,2.40
2023-03-12T09:28:40.142Z,2.15
2023-03-12T09:31:56.305Z,2.40
2023-03-12T09:35:13.990Z,2.40
2023-03-12T09:38:32.570Z,2.40
2023-03-12T09:41:52.907Z,2.00
2023-03-12T09:45:16.486Z,2.25
2023-03-12T09:48:39.616Z,1.90
2023-03-12T09:51:59.575Z,2.15
2023-03-12T09:55:21.339Z,2.20
2023-03-12T09:58:43.266Z,22.58
2023-03-12T10:02:04.173Z,3.48
2023-03-12T10:05:25.573Z,2.20
2023-03-12T10:08:54.630Z,2.10
2023-03-12T10:12:19.154Z,2.33
2023-03-12T10:15:48.309Z,2.40
2023-03-12T10:19:18.351Z,2.55
2023-03-12T10:22:50.788Z,2.75
2023-03-12T10:29:30.293Z,2.90
2023-03-12T10:32:52.064Z,3.08
2023-03-12T10:36:08.915Z,3.03
2023-03-12T10:39:27.086Z,3.60
2023-03-12T10:42:43.968Z,3.90
2023-03-12T10:46:07.531Z,3.40
2023-03-12T10:49:41.684Z,17.70
2023-03-12T10:53:01.616Z,4.23
2023-03-12T10:56:20.284Z,3.30
2023-03-12T10:59:43.487Z,3.63
2023-03-12T11:03:06.650Z,3.35
2023-03-12T11:06:30.856Z,3.40
2023-03-12T11:09:47.237Z,3.38
2023-03-12T11:13:11.835Z,3.90
2023-03-12T11:16:36.283Z,3.78
2023-03-12T11:19:54.463Z,3.10
2023-03-12T11:23:20.949Z,3.20
2023-03-12T11:26:43.108Z,3.65
2023-03-12T11:30:02.248Z,3.48
2023-03-12T11:33:21.251Z,3.95
2023-03-12T11:36:48.704Z,3.60
2023-03-12T11:40:30.535Z,3.40
2023-03-12T11:44:01.786Z,3.20
2023-03-12T11:47:42.293Z,3.73
2023-03-12T11:51:08.394Z,3.95
2023-03-12T11:55:07.379Z,4.00
2023-03-12T11:58:58.475Z,3.83
2023-03-12T12:02:32.329Z,4.03
2023-03-12T12:05:56.805Z,4.08
2023-03-12T12:09:23.983Z,4.25
2023-03-12T12:12:56.071Z,4.45
2023-03-12T12:16:32.147Z,3.80
2023-03-12T12:19:59.046Z,4.40
2023-03-12T12:23:31.274Z,12.73
2023-03-12T12:26:54.665Z,4.50
2023-03-12T12:30:26.768Z,4.53
2023-03-12T12:33:54.754Z,4.58
2023-03-12T12:37:22.907Z,4.98
2023-03-12T12:40:43.239Z,4.18
2023-03-12T12:44:05.418Z,4.73
2023-03-12T12:47:25.979Z,4.20
2023-03-12T12:50:46.120Z,3.90
2023-03-12T12:54:06.538Z,4.25
2023-03-12T12:57:27.019Z,3.78
2023-03-12T13:00:54.352Z,4.10
2023-03-12T13:04:17.307Z,3.98
2023-03-12T13:07:41.483Z,4.35
2023-03-12T13:11:16.344Z,4.65
2023-03-12T13:18:15.577Z,4.28
2023-03-12T13:21:39.696Z,4.50
2023-03-12T13:25:01.964Z,4.10
2023-03-12T13:29:12.236Z,3.90
2023-03-12T13:33:06.763Z,3.50
2023-03-12T13:36:34.574Z,3.60
2023-03-12T13:39:52.601Z,4.33
2023-03-12T13:43:19.916Z,4.05
2023-03-12T13:46:54.361Z,4.25
2023-03-12T13:50:14.567Z,4.18
2023-03-12T13:53:38.621Z,4.15
2023-03-12T13:57:05.337Z,4.25
2023-03-12T14:00:29.342Z,4.23
2023-03-12T14:03:50.457Z,4.03
2023-03-12T14:07:24.553Z,4.10
2023-03-12T14:10:52.216Z,4.80
2023-03-12T14:14:37.367Z,3.58
2023-03-12T14:17:54.507Z,3.60
2023-03-12T14:21:15.508Z,3.53
2023-03-12T14:24:39.517Z,3.48
2023-03-12T14:27:58.734Z,3.23
2023-03-12T14:31:21.778Z,3.05
2023-03-12T14:34:44.365Z,3.00
2023-03-12T14:38:19.188Z,2.95
2023-03-12T14:41:42.015Z,3.63
2023-03-12T14:45:08.790Z,3.08
2023-03-12T14:48:32.675Z,3.50
2023-03-12T14:51:50.607Z,3.15
2023-03-12T14:55:14.411Z,3.25
2023-03-12T14:58:30.453Z,2.83
2023-03-12T15:01:48.709Z,3.08
2023-03-12T15:05:08.544Z,3.48
2023-03-12T15:08:26.565Z,3.13
2023-03-12T15:11:46.023Z,2.98
2023-03-12T15:15:08.830Z,2.90
2023-03-12T15:18:31.602Z,3.15
2023-03-12T15:21:48.283Z,3.15
2023-03-12T15:25:08.863Z,2.90
2023-03-12T15:28:39.179Z,2.78
2023-03-12T15:32:42.664Z,3.08
2023-03-12T15:35:49.333Z,2.95
2023-03-12T15:39:09.887Z,2.50
2023-03-12T15:42:29.814Z,3.05
2023-03-12T15:45:48.525Z,2.80
2023-03-12T15:49:08.286Z,2.50
2023-03-12T15:52:40.120Z,2.90
2023-03-12T15:56:16.686Z,2.90
2023-03-12T15:59:35.665Z,2.90
2023-03-12T16:03:00.176Z,2.50
2023-03-12T16:06:36.844Z,2.78
2023-03-12T16:09:53.151Z,2.85
2023-03-12T16:13:15.200Z,2.60
2023-03-12T16:17:38.900Z,2.93
2023-03-12T16:20:56.871Z,2.65
2023-03-12T16:24:13.730Z,2.85
2023-03-12T16:27:32.691Z,2.93
2023-03-12T16:34:04.131Z,3.13
2023-03-12T16:37:21.349Z,2.98
2023-03-12T16:40:40.659Z,2.78
2023-03-12T16:47:15.931Z,3.28
2023-03-12T16:50:32.773Z,3.28
2023-03-12T16:54:01.989Z,3.48
2023-03-12T16:57:08.678Z,3.30
2023-03-12T17:00:30.973Z,3.78
2023-03-12T17:03:50.399Z,3.88
2023-03-12T17:10:24.501Z,3.93
2023-03-12T17:13:43.937Z,3.95
2023-03-12T17:20:22.669Z,4.98
2023-03-12T17:23:39.586Z,4.60
2023-03-12T17:26:57.482Z,5.18
2023-03-12T17:33:30.758Z,5.45
2023-03-12T17:36:49.225Z,5.33
2023-03-12T17:40:08.164Z,5.18
2023-03-12T17:43:24.134Z,5.60
2023-03-12T17:46:56.514Z,4.90
2023-03-12T17:50:05.593Z,6.00
2023-03-12T17:53:22.055Z,20.75
2023-03-12T17:56:39.145Z,9.43
2023-03-12T17:59:55.343Z,6.23
2023-03-12T18:03:13.097Z,6.43
2023-03-12T18:06:29.412Z,5.93
2023-03-12T18:09:46.232Z,5.83
2023-03-12T18:13:02.940Z,6.30
2023-03-12T18:16:19.211Z,6.28
2023-03-12T18:19:36.150Z,6.68
2023-03-12T18:22:53.453Z,6.28
2023-03-12T18:26:11.848Z,6.20
2023-03-12T18:29:27.825Z,5.98
2023-03-12T18:32:46.421Z,42.73
2023-03-12T18:36:02.890Z,11.38
2023-03-12T18:39:20.238Z,6.60
2023-03-12T18:42:38.778Z,5.68
2023-03-12T18:45:55.743Z,5.40
2023-03-12T18:49:17.377Z,5.43
2023-03-12T18:52:34.147Z,5.65
2023-03-12T18:55:58.146Z,5.25
2023-03-12T18:59:15.756Z,6.00
2023-03-12T19:02:48.197Z,5.53
2023-03-12T19:06:14.814Z,6.48
2023-03-12T19:09:30.907Z,6.58
2023-03-12T19:12:52.610Z,6.33
2023-03-12T19:16:11.496Z,6.53
2023-03-12T19:19:27.661Z,5.80
2023-03-12T19:22:43.765Z,5.13
2023-03-12T19:26:00.488Z,5.68
2023-03-12T19:29:17.388Z,6.23
2023-03-12T19:32:43.188Z,4.90
2023-03-12T19:35:52.848Z,5.05
2023-03-12T19:39:20.572Z,6.15
2023-03-12T19:42:30.451Z,7.40
2023-03-12T19:49:03.993Z,7.50
2023-03-12T19:52:21.837Z,7.75
2023-03-12T19:55:38.920Z,7.78
2023-03-12T19:58:55.620Z,8.30
2023-03-12T20:02:12.177Z,8.95
2023-03-12T20:05:28.886Z,9.73
2023-03-12T20:08:46.468Z,9.90
2023-03-12T20:12:02.630Z,8.88
2023-03-12T20:15:21.190Z,10.88
2023-03-12T20:18:37.654Z,10.35
2023-03-12T20:21:56.137Z,11.83
2023-03-12T20:25:13.909Z,11.70
2023-03-12T20:28:32.009Z,11.28
2023-03-12T20:35:06.924Z,12.93
2023-03-12T20:38:23.437Z,12.25
2023-03-12T20:41:42.856Z,13.73
2023-03-12T20:44:59.188Z,14.00
2023-03-12T20:48:19.896Z,14.93
2023-03-12T20:51:36.278Z,14.85
2023-03-12T20:54:52.570Z,14.58
2023-03-12T20:58:11.637Z,15.65
2023-03-12T21:01:27.796Z,15.43
2023-03-12T21:04:44.436Z,15.35
2023-03-12T21:08:02.430Z,15.58
2023-03-12T21:11:18.679Z,13.90
2023-03-12T21:14:40.023Z,14.83
2023-03-12T21:17:56.084Z,14.40
2023-03-12T21:21:14.461Z,13.53
2023-03-12T21:24:30.745Z,13.50
2023-03-12T21:27:50.926Z,13.25
2023-03-12T21:34:22.330Z,11.35
2023-03-12T21:37:38.729Z,10.68
2023-03-12T21:40:57.891Z,10.48
2023-03-12T21:44:16.477Z,9.63
2023-03-12T21:47:32.436Z,9.80
2023-03-12T21:50:48.512Z,9.45
2023-03-12T21:54:07.332Z,10.10
2023-03-12T21:57:26.236Z,9.20
2023-03-12T22:00:42.303Z,9.93
2023-03-12T22:03:58.307Z,8.45
2023-03-12T22:07:14.583Z,9.00
2023-03-12T22:10:30.636Z,8.73
2023-03-12T22:13:47.344Z,8.60
2023-03-12T22:20:22.287Z,7.88
2023-03-12T22:23:39.849Z,8.28
2023-03-12T22:26:56.107Z,7.15
2023-03-12T22:30:15.580Z,7.28
2023-03-12T22:36:49.894Z,6.85
2023-03-12T22:40:08.091Z,7.33
2023-03-12T22:43:24.531Z,6.55
2023-03-12T22:46:41.540Z,6.93
2023-03-12T22:49:59.208Z,6.63
2023-03-12T22:53:15.208Z,6.15
2023-03-12T22:56:31.563Z,6.05
2023-03-12T22:59:47.716Z,5.70
2023-03-12T23:06:22.765Z,5.78
2023-03-12T23:09:39.473Z,5.80
2023-03-12T23:12:55.654Z,5.23
2023-03-12T23:19:28.367Z,4.88
2023-03-12T23:22:44.524Z,5.43
2023-03-12T23:26:05.076Z,5.48
2023-03-12T23:29:22.945Z,5.15
2023-03-12T23:36:03.436Z,4.83
2023-03-12T23:39:20.538Z,5.25
2023-03-12T23:42:37.949Z,5.35
2023-03-12T23:45:56.083Z,5.40
2023-03-12T23:49:12.310Z,4.90
2023-03-12T23:52:28.489Z,4.98
2023-03-12T23:55:44.619Z,4.10
2023-03-12T23:59:01.971Z,4.83
